createdAt,value
2023-05-05T00:00:20.918Z,102342.59
2023-05-05T00:02:48.237Z,102363.97
2023-05-05T00:05:14.992Z,102369.97
2023-05-05T00:07:41.963Z,102354.75
2023-05-05T00:10:09.750Z,102354.75
2023-05-05T00:12:36.872Z,102368.38
2023-05-05T00:15:03.969Z,102377.03
2023-05-05T00:17:30.866Z,102379.00
2023-05-05T00:19:58.094Z,102373.13
2023-05-05T00:22:24.765Z,102374.06
2023-05-05T00:24:51.465Z,102385.34
2023-05-05T00:27:18.170Z,102382.75
2023-05-05T00:29:44.855Z,102365.88
2023-05-05T00:32:11.589Z,102372.00
2023-05-05T00:34:38.293Z,102389.00
2023-05-05T00:37:05.031Z,102396.09
2023-05-05T00:39:33.283Z,102376.38
2023-05-05T00:42:00.037Z,102371.34
2023-05-05T00:44:41.087Z,102378.06
2023-05-05T00:47:11.455Z,102372.34
2023-05-05T00:49:38.324Z,102395.50
2023-05-05T00:52:05.414Z,102377.50
2023-05-05T00:54:32.429Z,102378.88
2023-05-05T00:56:59.115Z,102376.28
2023-05-05T00:59:25.893Z,102379.66
2023-05-05T01:01:52.748Z,102383.09
2023-05-05T01:04:19.490Z,102382.25
2023-05-05T01:06:54.741Z,102384.09
2023-05-05T01:09:47.243Z,102389.25
2023-05-05T01:12:41.777Z,102377.38
2023-05-05T01:15:15.911Z,102385.41
2023-05-05T01:17:56.115Z,102384.66
2023-05-05T01:21:01.622Z,102390.84
2023-05-05T01:23:36.993Z,102389.13
2023-05-05T01:26:29.852Z,102402.19
2023-05-05T01:29:22.926Z,102392.03
2023-05-05T01:31:53.747Z,102392.31
2023-05-05T01:34:34.542Z,102392.56
2023-05-05T01:37:22.364Z,102390.78
2023-05-05T01:39:53.367Z,102396.94
2023-05-05T01:42:20.097Z,102385.28
2023-05-05T01:44:46.797Z,102389.72
2023-05-05T01:47:16.188Z,102386.44
2023-05-05T01:49:47.105Z,102390.66
2023-05-05T01:52:14.890Z,102386.56
2023-05-05T01:54:42.402Z,102391.41
2023-05-05T01:57:09.256Z,102392.28
2023-05-05T01:59:37.013Z,102389.72
2023-05-05T02:02:03.874Z,102373.69
2023-05-05T02:04:31.807Z,102381.41
2023-05-05T02:06:58.641Z,102382.69
2023-05-05T02:09:25.732Z,102390.78
2023-05-05T02:11:52.980Z,102381.81
2023-05-05T02:14:19.868Z,102383.06
2023-05-05T02:16:46.919Z,102374.19
2023-05-05T02:19:14.108Z,102377.13
2023-05-05T02:21:41.390Z,102370.81
2023-05-05T02:24:08.761Z,102379.56
2023-05-05T02:26:36.158Z,102383.28
2023-05-05T02:29:11.154Z,102394.47
2023-05-05T02:31:45.787Z,102391.19
2023-05-05T02:34:12.572Z,102390.59
2023-05-05T02:36:40.043Z,102397.72
2023-05-05T02:39:14.729Z,102402.28
2023-05-05T02:41:41.692Z,102395.72
2023-05-05T02:44:08.575Z,102400.25
2023-05-05T02:46:35.658Z,102394.69
2023-05-05T02:49:02.380Z,102401.75
2023-05-05T02:51:29.081Z,102397.78
2023-05-05T02:53:56.368Z,102406.75
2023-05-05T02:56:32.781Z,102401.97
2023-05-05T02:59:18.178Z,102411.66
2023-05-05T03:02:01.150Z,102404.16
2023-05-05T03:04:31.988Z,102394.13
2023-05-05T03:06:59.885Z,102409.00
2023-05-05T03:09:51.396Z,102414.16
2023-05-05T03:12:21.762Z,102412.69
2023-05-05T03:14:48.879Z,102414.84
2023-05-05T03:17:15.570Z,102425.09
2023-05-05T03:19:43.220Z,102415.94
2023-05-05T03:22:10.067Z,102422.41
2023-05-05T03:24:36.865Z,102420.19
2023-05-05T03:27:03.604Z,102417.13
2023-05-05T03:29:30.310Z,102418.56
2023-05-05T03:31:57.115Z,102430.31
2023-05-05T03:34:23.907Z,102426.16
2023-05-05T03:36:50.663Z,102421.09
2023-05-05T03:39:18.860Z,102428.69
2023-05-05T03:41:45.687Z,102423.66
2023-05-05T03:44:12.395Z,102428.19
2023-05-05T03:46:39.269Z,102423.88
2023-05-05T03:49:05.958Z,102435.56
2023-05-05T03:51:32.720Z,102433.25
2023-05-05T03:53:59.451Z,102446.44
2023-05-05T03:56:26.172Z,102446.44
2023-05-05T03:58:52.909Z,102440.19
2023-05-05T04:01:19.603Z,102448.50
2023-05-05T04:03:46.443Z,102442.16
2023-05-05T04:06:13.284Z,102442.56
2023-05-05T04:08:40.087Z,102447.06
2023-05-05T04:11:07.017Z,102443.19
2023-05-05T04:13:33.720Z,102445.63
2023-05-05T04:16:00.480Z,102455.06
2023-05-05T04:18:27.211Z,102459.78
2023-05-05T04:20:53.945Z,102441.47
2023-05-05T04:23:20.700Z,102447.97
2023-05-05T04:25:47.756Z,102442.13
2023-05-05T04:28:14.502Z,102450.66
2023-05-05T04:30:41.280Z,102444.34
2023-05-05T04:33:08.060Z,102464.63
2023-05-05T04:35:34.894Z,102458.84
2023-05-05T04:38:02.003Z,102462.13
2023-05-05T04:40:28.735Z,102460.47
2023-05-05T04:42:55.524Z,102467.44
2023-05-05T04:45:22.305Z,102476.53
2023-05-05T04:47:49.118Z,102476.31
2023-05-05T04:50:16.650Z,102472.06
2023-05-05T04:52:43.339Z,102488.00
2023-05-05T04:55:10.841Z,102485.69
2023-05-05T04:57:37.619Z,102493.53
2023-05-05T05:00:05.594Z,102502.22
2023-05-05T05:02:32.612Z,102505.81
2023-05-05T05:04:59.391Z,102497.56
2023-05-05T05:07:26.464Z,102494.75
2023-05-05T05:09:53.178Z,102500.94
2023-05-05T05:12:19.933Z,102496.94
2023-05-05T05:14:46.718Z,102503.53
2023-05-05T05:17:13.571Z,102494.81
2023-05-05T05:19:40.297Z,102490.44
2023-05-05T05:22:06.976Z,102492.09
2023-05-05T05:24:34.862Z,102499.59
2023-05-05T05:27:01.682Z,102495.75
2023-05-05T05:29:28.423Z,102512.00
2023-05-05T05:31:55.135Z,102509.81
2023-05-05T05:34:21.830Z,102512.31
2023-05-05T05:36:48.572Z,102504.22
2023-05-05T05:39:15.332Z,102511.84
2023-05-05T05:41:42.159Z,102503.75
2023-05-05T05:44:08.850Z,102495.59
2023-05-05T05:46:35.694Z,102493.41
2023-05-05T05:49:02.537Z,102505.78
2023-05-05T05:51:29.324Z,102515.66
2023-05-05T05:53:58.685Z,102513.59
2023-05-05T05:56:25.600Z,102498.16
2023-05-05T05:58:52.441Z,102510.19
2023-05-05T06:01:19.518Z,102501.34
2023-05-05T06:03:46.380Z,102511.13
2023-05-05T06:06:13.140Z,102505.78
2023-05-05T06:08:39.860Z,102506.66
2023-05-05T06:11:06.604Z,102494.69
2023-05-05T06:13:33.428Z,102507.34
2023-05-05T06:16:00.427Z,102505.53
2023-05-05T06:18:27.342Z,102503.06
2023-05-05T06:20:54.128Z,102511.56
2023-05-05T06:23:20.901Z,102515.25
2023-05-05T06:25:48.075Z,102510.16
2023-05-05T06:28:14.857Z,102517.91
2023-05-05T06:30:41.620Z,102519.03
2023-05-05T06:33:08.474Z,102517.44
2023-05-05T06:35:35.207Z,102527.69
2023-05-05T06:38:01.903Z,102512.06
2023-05-05T06:40:28.688Z,102527.44
2023-05-05T06:42:55.510Z,102527.88
2023-05-05T06:45:22.273Z,102531.38
2023-05-05T06:47:49.609Z,102516.91
2023-05-05T06:50:16.658Z,102525.97
2023-05-05T06:52:43.388Z,102533.16
2023-05-05T06:55:10.257Z,102537.09
2023-05-05T06:57:36.998Z,102530.44
2023-05-05T07:00:09.811Z,102527.19
2023-05-05T07:02:37.216Z,102518.94
2023-05-05T07:05:04.403Z,102527.34
2023-05-05T07:07:32.452Z,102528.22
2023-05-05T07:09:59.230Z,102530.44
2023-05-05T07:12:25.925Z,102522.34
2023-05-05T07:14:52.681Z,102538.41
2023-05-05T07:17:19.401Z,102517.81
2023-05-05T07:19:46.151Z,102527.53
2023-05-05T07:22:12.882Z,102538.91
2023-05-05T07:24:39.561Z,102524.69
2023-05-05T07:27:07.067Z,102525.81
2023-05-05T07:29:33.825Z,102531.50
2023-05-05T07:32:00.735Z,102528.34
2023-05-05T07:34:27.869Z,102545.50
2023-05-05T07:36:56.436Z,102526.81
2023-05-05T07:39:23.193Z,102544.47
2023-05-05T07:41:50.036Z,102517.59
2023-05-05T07:44:16.814Z,102538.38
2023-05-05T07:46:43.549Z,102535.94
2023-05-05T07:49:10.477Z,102539.75
2023-05-05T07:51:37.703Z,102533.44
2023-05-05T07:54:04.426Z,102529.59
2023-05-05T07:56:31.194Z,102542.34
2023-05-05T07:58:57.896Z,102562.84
2023-05-05T08:01:24.560Z,102557.25
2023-05-05T08:03:51.519Z,102567.34
2023-05-05T08:06:25.294Z,102549.16
2023-05-05T08:08:53.504Z,102564.00
2023-05-05T08:11:21.794Z,102584.59
2023-05-05T08:13:48.779Z,102584.00
2023-05-05T08:16:15.904Z,102586.97
2023-05-05T08:18:42.812Z,102568.75
2023-05-05T08:21:09.722Z,102584.38
2023-05-05T08:23:36.419Z,102584.19
2023-05-05T08:26:03.667Z,102585.34
2023-05-05T08:28:30.574Z,102580.56
2023-05-05T08:30:57.322Z,102573.94
2023-05-05T08:33:24.025Z,102578.50
2023-05-05T08:35:50.869Z,102582.81
2023-05-05T08:38:19.136Z,102594.91
2023-05-05T08:40:45.943Z,102596.75
2023-05-05T08:43:12.727Z,102577.47
2023-05-05T08:45:40.827Z,102587.06
2023-05-05T08:48:07.736Z,102595.19
2023-05-05T08:50:34.564Z,102597.16
2023-05-05T08:53:22.504Z,102590.28
2023-05-05T08:55:52.506Z,102576.84
2023-05-05T08:58:19.685Z,102577.69
2023-05-05T09:00:46.779Z,102572.84
2023-05-05T09:03:13.658Z,102595.09
2023-05-05T09:05:40.544Z,102599.25
2023-05-05T09:08:10.034Z,102585.72
2023-05-05T09:10:36.914Z,102562.78
2023-05-05T09:13:05.376Z,102570.03
2023-05-05T09:15:33.090Z,102581.06
2023-05-05T09:18:00.833Z,102603.41
2023-05-05T09:20:37.576Z,102601.34
2023-05-05T09:23:20.064Z,102581.81
2023-05-05T09:25:48.822Z,102578.41
2023-05-05T09:28:17.181Z,102581.06
2023-05-05T09:30:45.443Z,102601.31
2023-05-05T09:33:12.384Z,102593.28
2023-05-05T09:35:55.834Z,102592.78
2023-05-05T09:38:23.410Z,102604.41
2023-05-05T09:40:53.794Z,102594.16
2023-05-05T09:43:21.998Z,102617.72
2023-05-05T09:45:49.227Z,102606.47
2023-05-05T09:48:29.753Z,102609.00
2023-05-05T09:50:57.186Z,102588.44
2023-05-05T09:53:24.405Z,102599.53
2023-05-05T09:55:55.222Z,102617.19
2023-05-05T09:58:24.136Z,102616.75
2023-05-05T10:00:51.006Z,102592.09
2023-05-05T10:03:17.913Z,102617.56
2023-05-05T10:05:55.708Z,102616.53
2023-05-05T10:08:30.519Z,102611.16
2023-05-05T10:11:00.735Z,102603.66
2023-05-05T10:13:27.968Z,102612.88
2023-05-05T10:15:56.124Z,102602.19
2023-05-05T10:18:27.052Z,102611.78
2023-05-05T10:21:01.341Z,102606.84
2023-05-05T10:23:49.072Z,102584.34
2023-05-05T10:26:15.973Z,102609.72
2023-05-05T10:29:04.128Z,102591.97
2023-05-05T10:32:00.607Z,102583.69
2023-05-05T10:34:35.846Z,102589.34
2023-05-05T10:37:04.643Z,102585.19
2023-05-05T10:39:31.545Z,102564.25
2023-05-05T10:42:02.001Z,102597.75
2023-05-05T10:44:32.056Z,102593.81
2023-05-05T10:46:58.799Z,102583.78
2023-05-05T10:49:41.539Z,102605.13
2023-05-05T10:52:38.178Z,102576.78
2023-05-05T10:55:16.354Z,102618.34
2023-05-05T10:57:44.706Z,102618.16
2023-05-05T11:00:31.858Z,102594.94
2023-05-05T11:03:18.545Z,102613.78
2023-05-05T11:06:12.687Z,102597.84
2023-05-05T11:08:43.926Z,102590.25
2023-05-05T11:11:11.297Z,102571.13
2023-05-05T11:13:38.988Z,102588.88
2023-05-05T11:16:06.064Z,102558.03
2023-05-05T11:18:37.042Z,102563.84
2023-05-05T11:21:07.328Z,102568.75
2023-05-05T11:23:34.358Z,102554.69
2023-05-05T11:26:01.903Z,102576.84
2023-05-05T11:28:32.397Z,102576.31
2023-05-05T11:31:02.286Z,102592.66
2023-05-05T11:33:33.311Z,102566.38
2023-05-05T11:36:07.556Z,102577.19
2023-05-05T11:39:11.956Z,102600.66
2023-05-05T11:42:06.588Z,102583.91
2023-05-05T11:44:36.380Z,102582.63
2023-05-05T11:47:06.122Z,102580.63
2023-05-05T11:49:34.076Z,102567.94
2023-05-05T11:52:02.434Z,102554.50
2023-05-05T11:54:29.412Z,102593.00
2023-05-05T11:57:00.662Z,102559.66
2023-05-05T11:59:27.615Z,102553.34
2023-05-05T12:01:54.437Z,102568.56
2023-05-05T12:04:21.438Z,102580.25
2023-05-05T12:06:49.260Z,102564.88
2023-05-05T12:09:20.235Z,102556.38
2023-05-05T12:11:54.067Z,102551.31
2023-05-05T12:14:21.172Z,102579.22
2023-05-05T12:17:06.697Z,102571.94
2023-05-05T12:19:33.856Z,102544.47
2023-05-05T12:22:04.477Z,102562.63
2023-05-05T12:24:31.667Z,102566.94
2023-05-05T12:27:11.260Z,102564.56
2023-05-05T12:29:38.243Z,102548.09
2023-05-05T12:32:05.425Z,102539.81
2023-05-05T12:34:32.294Z,102589.09
2023-05-05T12:36:59.141Z,102572.47
2023-05-05T12:39:36.708Z,102563.22
2023-05-05T12:42:04.434Z,102541.19
2023-05-05T12:44:38.065Z,102548.44
2023-05-05T12:47:05.057Z,102542.91
2023-05-05T12:49:34.462Z,102555.16
2023-05-05T12:52:01.656Z,102552.09
2023-05-05T12:54:29.841Z,102556.19
2023-05-05T12:56:59.703Z,102556.63
2023-05-05T12:59:27.553Z,102558.53
2023-05-05T13:01:59.972Z,102554.41
2023-05-05T13:04:27.987Z,102522.31
2023-05-05T13:07:14.342Z,102558.09
2023-05-05T13:09:41.359Z,102559.31
2023-05-05T13:12:13.877Z,102569.72
2023-05-05T13:14:40.944Z,102546.19
2023-05-05T13:17:07.911Z,102568.13
2023-05-05T13:19:42.938Z,102556.56
2023-05-05T13:22:13.015Z,102540.03
2023-05-05T13:24:50.684Z,102562.75
2023-05-05T13:27:18.177Z,102540.53
2023-05-05T13:29:45.004Z,102540.69
2023-05-05T13:32:11.897Z,102539.09
2023-05-05T13:34:39.542Z,102542.63
2023-05-05T13:37:06.572Z,102525.94
2023-05-05T13:39:33.474Z,102535.25
2023-05-05T13:42:00.254Z,102530.75
2023-05-05T13:44:27.047Z,102542.72
2023-05-05T13:46:54.006Z,102538.81
2023-05-05T13:49:20.905Z,102523.59
2023-05-05T13:51:47.657Z,102519.22
2023-05-05T13:54:14.444Z,102524.16
2023-05-05T13:56:41.332Z,102535.78
2023-05-05T13:59:08.200Z,102511.34
2023-05-05T14:01:35.202Z,102498.16
2023-05-05T14:04:05.154Z,102504.97
2023-05-05T14:06:33.012Z,102529.59
2023-05-05T14:08:59.900Z,102516.06
2023-05-05T14:11:26.717Z,102495.31
2023-05-05T14:13:53.453Z,102512.63
2023-05-05T14:16:20.340Z,102500.41
2023-05-05T14:18:47.172Z,102503.13
2023-05-05T14:21:13.960Z,102531.19
2023-05-05T14:23:40.880Z,102523.34
2023-05-05T14:26:09.171Z,102522.13
2023-05-05T14:28:36.146Z,102505.63
2023-05-05T14:31:02.954Z,102495.31
2023-05-05T14:33:31.109Z,102523.38
2023-05-05T14:35:57.829Z,102512.56
2023-05-05T14:38:24.727Z,102524.22
2023-05-05T14:40:51.490Z,102524.47
2023-05-05T14:43:18.638Z,102521.09
2023-05-05T14:45:45.548Z,102510.91
2023-05-05T14:48:12.346Z,102514.91
2023-05-05T14:50:40.709Z,102504.38
2023-05-05T14:53:07.568Z,102496.53
2023-05-05T14:55:34.337Z,102504.34
2023-05-05T14:58:01.391Z,102485.28
2023-05-05T15:00:28.663Z,102455.06
2023-05-05T15:02:55.572Z,102469.53
2023-05-05T15:05:22.432Z,102477.75
2023-05-05T15:07:49.395Z,102484.31
2023-05-05T15:10:17.260Z,102465.53
2023-05-05T15:12:45.064Z,102480.09
2023-05-05T15:15:12.048Z,102500.25
2023-05-05T15:17:39.024Z,102490.28
2023-05-05T15:20:06.907Z,102492.56
2023-05-05T15:22:33.861Z,102472.13
2023-05-05T15:25:01.373Z,102473.44
2023-05-05T15:27:28.358Z,102488.84
2023-05-05T15:29:55.460Z,102485.34
2023-05-05T15:32:22.389Z,102484.63
2023-05-05T15:34:50.526Z,102491.94
2023-05-05T15:37:17.542Z,102507.00
2023-05-05T15:39:44.311Z,102496.94
2023-05-05T15:42:11.185Z,102496.53
2023-05-05T15:44:38.113Z,102480.97
2023-05-05T15:47:05.157Z,102491.75
2023-05-05T15:49:32.103Z,102483.31
2023-05-05T15:51:58.964Z,102496.06
2023-05-05T15:54:26.081Z,102463.00
2023-05-05T15:56:52.963Z,102490.03
2023-05-05T15:59:19.731Z,102485.13
2023-05-05T16:01:47.314Z,102507.47
2023-05-05T16:04:14.200Z,102492.38
2023-05-05T16:06:41.195Z,102488.63
2023-05-05T16:09:08.018Z,102489.88
2023-05-05T16:11:35.063Z,102509.44
2023-05-05T16:14:01.923Z,102482.50
2023-05-05T16:16:28.815Z,102481.13
2023-05-05T16:18:55.755Z,102499.78
2023-05-05T16:21:22.567Z,102493.16
2023-05-05T16:23:49.353Z,102475.75
2023-05-05T16:26:16.211Z,102506.88
2023-05-05T16:28:43.116Z,102491.22
2023-05-05T16:31:11.133Z,102502.91
2023-05-05T16:33:43.573Z,102486.50
2023-05-05T16:36:11.645Z,102500.50
2023-05-05T16:38:39.216Z,102493.31
2023-05-05T16:41:07.173Z,102460.78
2023-05-05T16:43:34.219Z,102462.59
2023-05-05T16:46:01.068Z,102474.63
2023-05-05T16:48:28.006Z,102489.69
2023-05-05T16:50:57.110Z,102485.44
2023-05-05T16:53:24.237Z,102489.91
2023-05-05T16:55:54.777Z,102490.38
2023-05-05T16:58:22.565Z,102481.94
2023-05-05T17:00:50.107Z,102476.16
2023-05-05T17:03:17.375Z,102491.09
2023-05-05T17:05:45.139Z,102494.25
2023-05-05T17:08:14.384Z,102482.72
2023-05-05T17:10:42.085Z,102476.84
2023-05-05T17:13:09.533Z,102484.44
2023-05-05T17:15:37.529Z,102485.06
2023-05-05T17:18:05.164Z,102479.53
2023-05-05T17:20:32.117Z,102484.31
2023-05-05T17:22:58.985Z,102482.53
2023-05-05T17:25:28.591Z,102487.47
2023-05-05T17:27:55.713Z,102488.19
2023-05-05T17:30:22.570Z,102488.59
2023-05-05T17:32:49.523Z,102468.19
2023-05-05T17:35:16.526Z,102474.78
2023-05-05T17:37:43.407Z,102475.00
2023-05-05T17:40:10.606Z,102481.69
2023-05-05T17:42:38.464Z,102484.59
2023-05-05T17:45:05.847Z,102489.47
2023-05-05T17:47:32.752Z,102482.50
2023-05-05T17:49:59.693Z,102472.94
2023-05-05T17:52:26.623Z,102484.06
2023-05-05T17:54:53.433Z,102484.84
2023-05-05T17:57:23.076Z,102462.06
2023-05-05T17:59:50.480Z,102508.69
2023-05-05T18:02:17.439Z,102489.13
2023-05-05T18:04:44.346Z,102482.09
2023-05-05T18:07:12.465Z,102492.91
2023-05-05T18:09:39.509Z,102488.72
2023-05-05T18:12:07.844Z,102500.25
2023-05-05T18:14:34.706Z,102484.06
2023-05-05T18:17:01.591Z,102504.66
2023-05-05T18:19:28.462Z,102486.00
2023-05-05T18:21:55.297Z,102506.13
2023-05-05T18:24:22.205Z,102505.81
2023-05-05T18:26:50.522Z,102495.09
2023-05-05T18:29:21.766Z,102515.00
2023-05-05T18:31:51.823Z,102504.38
2023-05-05T18:34:19.463Z,102515.41
2023-05-05T18:36:46.770Z,102506.00
2023-05-05T18:39:14.120Z,102504.38
2023-05-05T18:41:41.185Z,102515.97
2023-05-05T18:44:08.168Z,102501.16
2023-05-05T18:46:35.114Z,102498.13
2023-05-05T18:49:02.313Z,102498.44
2023-05-05T18:51:29.147Z,102501.13
2023-05-05T18:53:56.019Z,102493.78
2023-05-05T18:56:22.858Z,102489.88
2023-05-05T18:58:49.978Z,102497.66
2023-05-05T19:01:17.241Z,102511.38
2023-05-05T19:03:50.399Z,102503.00
2023-05-05T19:06:17.400Z,102484.38
2023-05-05T19:08:45.739Z,102502.03
2023-05-05T19:11:14.798Z,102487.78
2023-05-05T19:13:41.885Z,102505.00
2023-05-05T19:16:08.671Z,102489.00
2023-05-05T19:18:35.575Z,102482.25
2023-05-05T19:21:02.406Z,102485.88
2023-05-05T19:23:29.170Z,102486.72
2023-05-05T19:25:55.957Z,102478.13
2023-05-05T19:28:22.814Z,102484.34
2023-05-05T19:30:49.682Z,102494.69
2023-05-05T19:33:16.604Z,102492.38
2023-05-05T19:35:43.867Z,102483.16
2023-05-05T19:38:10.997Z,102489.22
2023-05-05T19:40:38.917Z,102480.78
2023-05-05T19:43:05.758Z,102501.25
2023-05-05T19:45:33.698Z,102497.91
2023-05-05T19:48:01.547Z,102494.22
2023-05-05T19:50:30.408Z,102493.28
2023-05-05T19:52:57.951Z,102487.28
2023-05-05T19:55:24.999Z,102497.91
2023-05-05T19:57:51.875Z,102504.50
2023-05-05T20:00:19.752Z,102496.69
2023-05-05T20:02:48.669Z,102504.69
2023-05-05T20:05:17.332Z,102490.13
2023-05-05T20:07:44.971Z,102492.97
2023-05-05T20:10:13.453Z,102494.81
2023-05-05T20:12:42.551Z,102499.19
2023-05-05T20:15:11.378Z,102491.75
2023-05-05T20:17:38.224Z,102502.88
2023-05-05T20:20:05.505Z,102505.06
2023-05-05T20:22:32.365Z,102506.69
2023-05-05T20:24:59.178Z,102496.81
2023-05-05T20:27:26.734Z,102490.75
2023-05-05T20:29:55.366Z,102496.94
2023-05-05T20:32:22.198Z,102487.66
2023-05-05T20:34:48.940Z,102497.25
2023-05-05T20:37:15.800Z,102495.72
2023-05-05T20:39:43.831Z,102504.44
2023-05-05T20:42:11.093Z,102485.91
2023-05-05T20:44:38.418Z,102498.59
2023-05-05T20:47:05.663Z,102483.78
2023-05-05T20:49:32.843Z,102483.78
2023-05-05T20:51:59.620Z,102475.38
2023-05-05T20:54:30.139Z,102482.75
2023-05-05T20:56:58.205Z,102473.00
2023-05-05T20:59:25.076Z,102471.38
2023-05-05T21:01:51.886Z,102470.44
2023-05-05T21:04:18.721Z,102471.94
2023-05-05T21:06:45.998Z,102463.56
2023-05-05T21:09:12.965Z,102467.00
2023-05-05T21:11:39.685Z,102483.19
2023-05-05T21:14:06.432Z,102463.94
2023-05-05T21:16:33.316Z,102466.31
2023-05-05T21:19:00.151Z,102479.78
2023-05-05T21:21:26.981Z,102471.09
2023-05-05T21:23:57.685Z,102461.09
2023-05-05T21:26:25.195Z,102458.38
2023-05-05T21:28:52.602Z,102462.88
2023-05-05T21:31:22.112Z,102457.13
2023-05-05T21:33:49.701Z,102479.19
2023-05-05T21:36:17.678Z,102479.31
2023-05-05T21:38:44.538Z,102472.13
2023-05-05T21:41:11.400Z,102473.00
2023-05-05T21:43:38.169Z,102474.53
2023-05-05T21:46:05.415Z,102470.41
2023-05-05T21:48:32.685Z,102461.06
2023-05-05T21:50:59.539Z,102457.00
2023-05-05T21:53:26.479Z,102447.84
2023-05-05T21:55:53.288Z,102445.47
2023-05-05T21:58:20.357Z,102443.72
2023-05-05T22:00:50.195Z,102439.16
2023-05-05T22:03:17.616Z,102438.22
2023-05-05T22:05:44.637Z,102451.03
2023-05-05T22:08:11.463Z,102447.78
2023-05-05T22:10:39.317Z,102439.63
2023-05-05T22:13:06.281Z,102439.84
2023-05-05T22:15:45.376Z,102460.22
2023-05-05T22:18:13.880Z,102447.66
2023-05-05T22:20:40.696Z,102452.19
2023-05-05T22:23:07.545Z,102463.25
2023-05-05T22:25:34.413Z,102451.50
2023-05-05T22:28:01.278Z,102454.19
2023-05-05T22:30:28.142Z,102454.69
2023-05-05T22:32:55.271Z,102446.47
2023-05-05T22:35:22.178Z,102454.13
2023-05-05T22:37:48.974Z,102454.19
2023-05-05T22:40:15.883Z,102439.94
2023-05-05T22:42:42.740Z,102447.72
2023-05-05T22:45:10.521Z,102450.31
2023-05-05T22:47:37.664Z,102425.72
2023-05-05T22:50:04.753Z,102444.50
2023-05-05T22:52:31.627Z,102444.75
2023-05-05T22:54:58.484Z,102443.31
2023-05-05T22:57:25.325Z,102422.28
2023-05-05T22:59:52.328Z,102421.69
2023-05-05T23:02:19.226Z,102422.78
2023-05-05T23:04:46.419Z,102428.94
2023-05-05T23:07:13.448Z,102432.59
2023-05-05T23:09:41.080Z,102412.50
2023-05-05T23:12:08.087Z,102419.22
2023-05-05T23:14:35.430Z,102425.97
2023-05-05T23:17:02.283Z,102408.94
2023-05-05T23:19:32.173Z,102408.13
2023-05-05T23:21:59.809Z,102405.59
2023-05-05T23:24:27.171Z,102402.22
2023-05-05T23:26:54.107Z,102421.22
2023-05-05T23:29:21.089Z,102413.75
2023-05-05T23:31:47.910Z,102373.59
2023-05-05T23:34:14.777Z,102365.44
2023-05-05T23:36:41.547Z,102370.00
2023-05-05T23:39:08.388Z,102370.28
2023-05-05T23:41:35.232Z,102366.25
2023-05-05T23:44:02.008Z,102359.88
2023-05-05T23:46:29.448Z,102357.50
2023-05-05T23:48:56.668Z,102361.19
2023-05-05T23:51:23.567Z,102356.06
2023-05-05T23:53:50.426Z,102372.44
2023-05-05T23:56:17.224Z,102350.72
2023-05-05T23:58:44.073Z,102365.44
